Williams, OR (97544)

9:17 PM PDT on October 21, 2014 (GMT -0700)
Bonlinda Lane | Change Station
CLOSE
Current Station
Personal Weather Station
Location: Williams, OR
Elevation: 1542 ft
Nearby Weather Stations

Elev 1542 ft 42.20 °N, 123.30 °W | Updated 9 minutes ago

Overcast
Overcast
50.2 °F
Feels Like 50.2 °F
N
0.0
Wind Variable Wind from South
Gusts 0.0 mph

Today
High -- | Low -- °F
--% Chance of Precip.
Yesterday
High -- | Low -- °F
Precip. -- in
7:32 AM 6:21 PM
Waning Crescent, 3% visible
Pressure 29.99 in
Visibility 10.0 miles
Clouds Few 5500 ft
Scattered Clouds 7000 ft
Overcast 8500 ft
Dew Point 47 °F
Humidity 89%
Rainfall 0.00 in
Snow Depth 0 in
UV 0 out of 12
Pollen 1.20 out of 12
Air Quality Not available.
Flu Activity Sporadic
METAR KMFR 220353Z 18005KT 10SM FEW055 SCT070 OVC085 13/08 A2999 RMK AO2 SLP156 T01330078

More Conditions Fewer Conditions

Pressure 29.99 in
Visibility 10.0 miles
Clouds Few 5500 ft
Scattered Clouds 7000 ft
Overcast 8500 ft
Dew Point 47 °F
Humidity 89%
Rainfall 0.00 in
Snow Depth 0 in
UV 0 out of 12
Pollen 1.20 out of 12
Air Quality Not available.
Flu Activity Sporadic
METAR KMFR 220353Z 18005KT 10SM FEW055 SCT070 OVC085 13/08 A2999 RMK AO2 SLP156 T01330078

More Conditions Fewer Conditions

10-Day Weather Forecast

Almanac

Astronomy

Oct. 21, 2014 Rise Set
Actual Time 7:32 AM PDT 6:21 PM PDT
Civil Twilight 7:04 AM PDT 6:50 PM PDT
Nautical Twilight 6:31 AM PDT 7:22 PM PDT
Astronomical Twilight 5:59 AM PDT 7:55 PM PDT
Moon 5:20 AM PDT (10/21) 5:20 PM PDT (10/21)
Length of Visible Light 11h 45m
Length of Day
10h 48m
Tomorrow will be 2m 42s shorter.
Waning Crescent, 3% of the Moon is Illuminated
Oct 22
Waning Crescent
Oct 23
New
Oct 30
First Quarter
Nov 6
Full
Nov 14
Last Quarter

Today's Extremes

State Highs State Lows

Community

WunderPhotos

Upload Photos

1,763,879 photos uploaded!

Nearby

Snow Depth

Station Depth Elevation
Bigelow Camp 0 in 5120 ft
Big Red Mountain 0 in 6250 ft
Fish Lake 0 in 4665 ft
Billie Creek Divide 0 in 5300 ft
Sevenmile Marsh 0 in 6200 ft

Earthquake Activity

City Distance Mag. Time & Date
Crescent City, California 95 miles 2.6 1:22 AM PDT
2014-10-21
Rio Dell, California 146 miles 4.2 7:24 AM PDT
2014-10-19
Minimum magnitude displayed is 2.5.

Coastal Water Temperatures

Place Temperature
No Stations Reporting

Nearby Weather Stations